Time;durP1;ratioP1;P1;durP2;ratioP2;P2;SDS_P1;SDS_P2;PMS_P1;PMS_P2;Temp;Humidity;BMP_temperature;BMP_pressure;BME280_temperature;BME280_humidity;BME280_pressure;Samples;Min_cycle;Max_cycle;Signal;HPM_P1;HPM_P2
2021/06/13 00:01:08;;;;;;;15.65;5.13;;;13.20;99.90;;;;;;5131601;27;20019;-44
2021/06/13 00:03:35;;;;;;;15.23;4.20;;;13.10;99.90;;;;;;5132196;27;20080;-45
2021/06/13 00:06:01;;;;;;;10.82;4.68;;;13.10;99.90;;;;;;5117057;27;20385;-44
2021/06/13 00:08:26;;;;;;;13.90;5.63;;;13.00;99.90;;;;;;5124093;27;20019;-45
2021/06/13 00:10:52;;;;;;;11.70;4.60;;;12.90;99.90;;;;;;5131062;27;20080;-44
2021/06/13 00:13:17;;;;;;;13.68;5.20;;;12.90;99.90;;;;;;5131958;27;20145;-44
2021/06/13 00:15:43;;;;;;;9.38;4.40;;;12.90;99.90;;;;;;5130679;27;20019;-44
2021/06/13 00:18:08;;;;;;;15.43;5.97;;;12.80;99.90;;;;;;5131862;27;20055;-45
2021/06/13 00:20:34;;;;;;;10.95;5.18;;;12.80;99.90;;;;;;5131154;27;20023;-45
2021/06/13 00:23:00;;;;;;;16.02;5.68;;;12.80;99.90;;;;;;5132061;27;20058;-45
2021/06/13 00:25:26;;;;;;;21.05;6.10;;;12.70;99.90;;;;;;5131747;27;20061;-45
2021/06/13 00:27:51;;;;;;;13.57;5.18;;;12.70;99.90;;;;;;5131844;27;20031;-44
2021/06/13 00:30:18;;;;;;;16.73;6.07;;;12.60;99.90;;;;;;5131512;27;20027;-45
2021/06/13 00:32:43;;;;;;;13.10;5.90;;;12.60;99.90;;;;;;5130407;27;20027;-45
2021/06/13 00:35:09;;;;;;;17.80;5.70;;;12.50;99.90;;;;;;5117310;27;20481;-45
2021/06/13 00:37:35;;;;;;;12.15;5.18;;;12.50;99.90;;;;;;5121510;27;20079;-47
2021/06/13 00:40:02;;;;;;;13.07;5.97;;;12.50;99.90;;;;;;5130715;27;20102;-43
2021/06/13 00:42:27;;;;;;;15.18;5.97;;;12.50;99.90;;;;;;5131625;27;20108;-45
2021/06/13 00:44:53;;;;;;;12.27;5.88;;;12.50;99.90;;;;;;5131744;27;20027;-44
2021/06/13 00:47:19;;;;;;;12.05;5.45;;;12.60;99.90;;;;;;5131403;27;20030;-46
2021/06/13 00:49:44;;;;;;;14.77;6.60;;;12.60;99.90;;;;;;5130982;27;20023;-46
2021/06/13 00:52:10;;;;;;;20.60;6.43;;;12.60;99.90;;;;;;5131576;27;20027;-44
2021/06/13 00:54:35;;;;;;;23.65;6.53;;;12.70;99.90;;;;;;5131463;27;20031;-44
2021/06/13 00:57:01;;;;;;;19.30;5.88;;;12.60;99.90;;;;;;5129589;27;20076;-45
2021/06/13 00:59:27;;;;;;;19.75;6.75;;;12.70;99.90;;;;;;5129487;27;20540;-45
2021/06/13 01:01:52;;;;;;;15.50;5.70;;;12.70;99.90;;;;;;5131061;27;20026;-44
2021/06/13 01:04:18;;;;;;;15.90;6.13;;;12.60;99.90;;;;;;5127440;27;20027;-46
2021/06/13 01:07:14;;;;;;;19.10;6.55;;;12.60;99.90;;;;;;5113955;27;20020;-45
2021/06/13 01:09:44;;;;;;;16.73;6.75;;;12.60;99.90;;;;;;5089147;28;20024;-44
2021/06/13 01:12:30;;;;;;;16.48;6.22;;;12.50;99.90;;;;;;5088691;28;20036;-44
2021/06/13 01:15:14;;;;;;;21.17;6.70;;;12.40;99.90;;;;;;5089980;28;20024;-45
2021/06/13 01:18:03;;;;;;;18.67;6.45;;;12.30;99.90;;;;;;5090079;28;20688;-47
2021/06/13 01:20:44;;;;;;;16.85;5.93;;;12.30;99.90;;;;;;5089494;28;20032;-45
2021/06/13 01:23:45;;;;;;;14.32;6.25;;;12.30;99.90;;;;;;5089676;28;20065;-45
2021/06/13 01:26:48;;;;;;;20.98;7.43;;;12.20;99.90;;;;;;5088209;28;20366;-44
2021/06/13 01:29:18;;;;;;;19.45;7.32;;;12.10;99.90;;;;;;5089511;28;20546;-44
2021/06/13 01:31:51;;;;;;;21.75;7.60;;;12.10;99.90;;;;;;5088484;28;20016;-47
2021/06/13 01:34:26;;;;;;;23.08;7.15;;;12.00;99.90;;;;;;5089450;28;20024;-45
2021/06/13 01:36:54;;;;;;;17.60;7.07;;;12.00;99.90;;;;;;5114338;27;20024;-45
2021/06/13 01:39:24;;;;;;;20.63;7.15;;;11.90;99.90;;;;;;5129007;27;20020;-47
2021/06/13 01:41:51;;;;;;;24.23;7.40;;;12.00;99.90;;;;;;5130315;27;20019;-43
2021/06/13 01:44:20;;;;;;;20.98;8.55;;;11.90;99.90;;;;;;5129108;27;20019;-44
2021/06/13 01:46:48;;;;;;;18.83;7.10;;;12.00;99.90;;;;;;5130298;27;20023;-46
2021/06/13 01:49:14;;;;;;;21.80;7.05;;;12.00;99.90;;;;;;5129703;27;20168;-45
2021/06/13 01:51:42;;;;;;;18.02;6.95;;;12.00;99.90;;;;;;5130277;27;20444;-46
2021/06/13 01:54:09;;;;;;;23.73;7.30;;;12.00;99.90;;;;;;5130404;27;20487;-45
2021/06/13 01:56:37;;;;;;;24.58;7.85;;;12.00;99.90;;;;;;5128394;27;20038;-47
2021/06/13 01:59:04;;;;;;;23.88;8.85;;;12.00;99.90;;;;;;5129765;27;20068;-44
2021/06/13 02:01:31;;;;;;;24.73;7.30;;;11.90;99.90;;;;;;5128713;27;20472;-44
2021/06/13 02:03:59;;;;;;;22.08;7.43;;;12.00;99.90;;;;;;5130318;27;20027;-46
2021/06/13 02:06:34;;;;;;;18.80;7.55;;;12.00;99.90;;;;;;5111642;27;20389;-45
2021/06/13 02:09:01;;;;;;;19.90;7.70;;;12.00;99.90;;;;;;5126439;27;20080;-45
2021/06/13 02:11:28;;;;;;;19.52;7.25;;;12.00;99.90;;;;;;5129424;27;20031;-44
2021/06/13 02:13:54;;;;;;;26.42;8.35;;;11.90;99.90;;;;;;5120345;27;20031;-45
2021/06/13 02:16:22;;;;;;;23.70;8.27;;;11.80;99.90;;;;;;5097891;28;20024;-44
2021/06/13 02:18:49;;;;;;;18.15;7.65;;;11.80;99.90;;;;;;5098360;28;20484;-44
2021/06/13 02:21:16;;;;;;;20.02;7.95;;;11.90;99.90;;;;;;5098402;28;20031;-44
2021/06/13 02:23:43;;;;;;;26.08;7.90;;;11.80;99.90;;;;;;5097612;28;20016;-45
2021/06/13 02:26:10;;;;;;;22.33;7.95;;;11.80;99.90;;;;;;5097295;28;20521;-45
2021/06/13 02:28:40;;;;;;;24.25;7.85;;;11.70;99.90;;;;;;5099188;28;20111;-44
2021/06/13 02:31:07;;;;;;;18.35;7.15;;;11.70;99.90;;;;;;5097359;28;20016;-45
2021/06/13 02:33:37;;;;;;;21.40;7.97;;;11.70;99.90;;;;;;5097676;28;20027;-44
2021/06/13 02:36:04;;;;;;;25.83;8.57;;;11.70;99.90;;;;;;5102062;27;20020;-45
2021/06/13 02:38:30;;;;;;;26.60;9.27;;;11.70;99.90;;;;;;5106071;27;20055;-45
2021/06/13 02:40:56;;;;;;;24.77;8.35;;;11.70;99.90;;;;;;5095811;28;20060;-44
2021/06/13 02:43:22;;;;;;;17.88;7.53;;;11.70;99.90;;;;;;5100165;28;20280;-44
2021/06/13 02:45:49;;;;;;;20.73;7.85;;;11.70;99.90;;;;;;5093964;28;20069;-45
2021/06/13 02:48:16;;;;;;;17.35;6.78;;;11.70;99.90;;;;;;5098150;28;20028;-45
2021/06/13 02:50:42;;;;;;;19.88;8.23;;;11.60;99.90;;;;;;5095648;28;20028;-44
2021/06/13 02:53:44;;;;;;;22.83;7.85;;;11.60;99.90;;;;;;5088163;28;20024;-44
2021/06/13 02:56:42;;;;;;;29.05;7.75;;;11.60;99.90;;;;;;5087665;28;20042;-43
2021/06/13 02:59:23;;;;;;;25.20;7.70;;;11.60;99.90;;;;;;5087632;28;20277;-44
2021/06/13 03:01:50;;;;;;;17.48;7.93;;;11.60;99.90;;;;;;5088224;28;20024;-44
2021/06/13 03:04:18;;;;;;;19.90;7.85;;;11.60;99.90;;;;;;5088174;28;20032;-44
2021/06/13 03:06:47;;;;;;;20.65;7.90;;;11.60;99.90;;;;;;5110328;27;20031;-45
2021/06/13 03:09:13;;;;;;;21.92;8.40;;;11.50;99.90;;;;;;5126979;27;20541;-44
2021/06/13 03:11:38;;;;;;;20.75;7.13;;;11.50;99.90;;;;;;5127460;27;20274;-44
2021/06/13 03:14:07;;;;;;;24.83;7.43;;;11.50;99.90;;;;;;5128895;27;20039;-45
2021/06/13 03:16:33;;;;;;;19.00;7.47;;;11.40;99.90;;;;;;5128735;27;20072;-44
2021/06/13 03:18:59;;;;;;;18.55;7.47;;;11.50;99.90;;;;;;5128594;27;20063;-44
2021/06/13 03:21:25;;;;;;;22.77;8.35;;;11.40;99.90;;;;;;5127313;27;20035;-44
2021/06/13 03:23:51;;;;;;;17.05;7.85;;;11.40;99.90;;;;;;5127014;27;20023;-44
2021/06/13 03:26:17;;;;;;;27.02;8.77;;;11.40;99.90;;;;;;5126790;27;20037;-45
2021/06/13 03:28:46;;;;;;;23.13;8.68;;;11.40;99.90;;;;;;5128491;27;20019;-44
2021/06/13 03:31:13;;;;;;;21.95;9.07;;;11.40;99.90;;;;;;5127727;27;20384;-44
2021/06/13 03:33:39;;;;;;;17.08;8.57;;;11.50;99.90;;;;;;5128407;27;20022;-43
2021/06/13 03:36:05;;;;;;;22.92;8.45;;;11.50;99.90;;;;;;5112634;27;20041;-44
2021/06/13 03:38:32;;;;;;;25.08;7.95;;;11.50;99.90;;;;;;5114752;28;20136;-44
2021/06/13 03:40:58;;;;;;;17.98;8.30;;;11.60;99.90;;;;;;5095675;28;20497;-44
2021/06/13 03:43:25;;;;;;;19.30;7.53;;;11.60;99.90;;;;;;5096627;28;20024;-44
2021/06/13 03:45:51;;;;;;;19.90;8.43;;;11.50;99.90;;;;;;5096638;28;20016;-44
2021/06/13 03:48:18;;;;;;;35.53;9.23;;;11.60;99.90;;;;;;5096886;28;20246;-44
2021/06/13 03:50:46;;;;;;;21.48;7.70;;;11.70;99.90;;;;;;5093680;28;20028;-45
2021/06/13 03:53:13;;;;;;;21.42;8.60;;;11.60;99.90;;;;;;5096087;28;20020;-44
2021/06/13 03:55:38;;;;;;;23.90;8.63;;;11.70;99.90;;;;;;5097069;28;20028;-43
2021/06/13 03:58:04;;;;;;;21.17;8.13;;;11.60;99.90;;;;;;5095571;28;20176;-43
2021/06/13 04:00:32;;;;;;;23.67;7.65;;;11.70;99.90;;;;;;5096548;28;20035;-45
2021/06/13 04:02:59;;;;;;;19.92;7.70;;;11.70;99.90;;;;;;5096177;28;20107;-45
2021/06/13 04:05:25;;;;;;;19.95;8.10;;;11.70;99.90;;;;;;5097861;28;20023;-44
2021/06/13 04:07:50;;;;;;;17.25;7.40;;;11.80;99.90;;;;;;5099513;28;20062;-44
2021/06/13 04:10:18;;;;;;;25.35;7.43;;;11.80;99.90;;;;;;5096517;28;20036;-45
2021/06/13 04:12:48;;;;;;;27.00;8.32;;;11.80;99.90;;;;;;5097802;28;20034;-44
2021/06/13 04:15:14;;;;;;;26.67;8.33;;;11.80;99.90;;;;;;5096056;28;20028;-44
2021/06/13 04:17:41;;;;;;;22.60;8.40;;;11.90;99.90;;;;;;5096262;28;20073;-44
2021/06/13 04:20:10;;;;;;;25.67;8.45;;;12.00;99.90;;;;;;5093897;28;20385;-45
2021/06/13 04:22:38;;;;;;;26.88;8.10;;;12.00;99.90;;;;;;5097266;28;20020;-45
2021/06/13 04:25:05;;;;;;;22.65;7.35;;;12.00;99.90;;;;;;5095484;28;20568;-44
2021/06/13 04:27:32;;;;;;;25.77;8.02;;;12.00;99.90;;;;;;5097516;28;20409;-45
2021/06/13 04:29:59;;;;;;;22.30;7.47;;;12.10;99.90;;;;;;5095920;28;20047;-44
2021/06/13 04:32:25;;;;;;;14.15;6.65;;;12.00;99.90;;;;;;5088120;28;20043;-45
2021/06/13 04:34:51;;;;;;;23.10;7.50;;;12.00;99.90;;;;;;5096748;28;20024;-44
2021/06/13 04:37:17;;;;;;;22.77;7.55;;;12.10;99.90;;;;;;5107928;27;20039;-45
2021/06/13 04:39:43;;;;;;;25.58;7.82;;;12.20;99.90;;;;;;5103959;27;20065;-44
2021/06/13 04:42:09;;;;;;;16.75;6.72;;;12.10;99.90;;;;;;5100302;28;20016;-44
2021/06/13 04:44:36;;;;;;;25.38;7.53;;;12.20;99.90;;;;;;5100655;28;20027;-43
2021/06/13 04:47:03;;;;;;;15.23;6.80;;;12.30;99.90;;;;;;5099710;28;20377;-45
2021/06/13 04:49:28;;;;;;;17.85;7.00;;;12.40;99.90;;;;;;5098705;28;20035;-44
2021/06/13 04:51:57;;;;;;;20.65;7.40;;;12.50;99.90;;;;;;5097492;28;20023;-46
2021/06/13 04:54:36;;;;;;;22.40;6.40;;;12.40;99.90;;;;;;5101481;28;20549;-43
2021/06/13 04:57:21;;;;;;;16.45;6.55;;;12.50;99.90;;;;;;5100746;28;20024;-45
2021/06/13 04:59:47;;;;;;;24.85;7.55;;;12.70;99.90;;;;;;5097249;28;20373;-45
2021/06/13 05:02:14;;;;;;;20.42;6.63;;;12.70;99.90;;;;;;5100360;28;20122;-44
2021/06/13 05:04:39;;;;;;;19.65;6.28;;;12.60;99.90;;;;;;5098319;28;20300;-45
2021/06/13 05:07:05;;;;;;;16.30;7.03;;;12.70;99.90;;;;;;5106080;27;20136;-45
2021/06/13 05:09:32;;;;;;;19.42;6.68;;;12.60;99.90;;;;;;5099647;28;20027;-44
2021/06/13 05:11:58;;;;;;;19.73;6.82;;;12.70;99.90;;;;;;5100219;28;20103;-44
2021/06/13 05:14:23;;;;;;;23.48;7.57;;;12.70;99.90;;;;;;5098613;28;20444;-43
2021/06/13 05:16:49;;;;;;;16.30;7.10;;;12.70;99.90;;;;;;5099011;28;20088;-44
2021/06/13 05:19:14;;;;;;;16.40;5.18;;;12.70;99.90;;;;;;5099262;28;20415;-45
2021/06/13 05:21:40;;;;;;;13.50;5.68;;;12.80;99.90;;;;;;5098858;28;20141;-45
2021/06/13 05:24:06;;;;;;;18.48;6.70;;;12.80;99.90;;;;;;5103773;28;20027;-44
2021/06/13 05:26:31;;;;;;;18.45;6.65;;;12.90;99.90;;;;;;5110158;28;20032;-45
2021/06/13 05:28:57;;;;;;;18.70;6.15;;;12.90;99.90;;;;;;5108711;28;20096;-44
2021/06/13 05:31:23;;;;;;;17.00;5.97;;;13.00;99.90;;;;;;5109464;28;20374;-45
2021/06/13 05:33:49;;;;;;;17.58;6.68;;;13.00;99.90;;;;;;5110185;28;20034;-45
2021/06/13 05:36:14;;;;;;;17.38;5.57;;;13.00;99.90;;;;;;5109024;27;20059;-43
2021/06/13 05:38:42;;;;;;;22.83;7.03;;;13.10;99.90;;;;;;5101204;27;20090;-44
2021/06/13 05:41:14;;;;;;;25.00;6.68;;;13.10;99.90;;;;;;5099719;28;20023;-44
2021/06/13 05:43:40;;;;;;;16.90;6.80;;;13.10;99.90;;;;;;5097561;28;20103;-44
2021/06/13 05:46:06;;;;;;;13.18;5.68;;;13.10;99.90;;;;;;5100904;28;20035;-44
2021/06/13 05:48:33;;;;;;;24.40;6.90;;;13.20;99.90;;;;;;5099646;28;20076;-44
2021/06/13 05:50:59;;;;;;;16.25;6.13;;;13.20;99.90;;;;;;5103155;28;20054;-44
2021/06/13 05:53:25;;;;;;;20.38;7.25;;;13.20;99.90;;;;;;5109675;28;20258;-44
2021/06/13 05:55:50;;;;;;;15.13;7.15;;;13.30;99.90;;;;;;5109426;28;20047;-44
2021/06/13 05:58:16;;;;;;;19.02;6.97;;;13.30;99.90;;;;;;5109443;28;20532;-44
2021/06/13 06:00:41;;;;;;;17.10;6.15;;;13.30;99.90;;;;;;5108818;28;20108;-47
2021/06/13 06:03:07;;;;;;;17.17;6.35;;;13.30;99.90;;;;;;5107978;28;20501;-45
2021/06/13 06:05:33;;;;;;;14.90;5.88;;;13.40;99.90;;;;;;5107515;27;20027;-45
2021/06/13 06:07:59;;;;;;;12.20;5.57;;;13.40;99.90;;;;;;5119955;27;20038;-45
2021/06/13 06:10:27;;;;;;;13.63;5.95;;;13.50;99.90;;;;;;5128927;27;20165;-44
2021/06/13 06:12:54;;;;;;;19.45;5.97;;;13.60;99.90;;;;;;5130098;27;20027;-44
2021/06/13 06:15:20;;;;;;;19.98;5.72;;;13.70;99.90;;;;;;5130041;27;20051;-44
2021/06/13 06:17:47;;;;;;;15.70;5.30;;;13.80;99.90;;;;;;5130029;27;20130;-44
2021/06/13 06:20:14;;;;;;;11.98;4.65;;;13.90;99.90;;;;;;5127980;27;20626;-44
2021/06/13 06:22:40;;;;;;;18.80;5.68;;;14.00;99.90;;;;;;5129642;27;20070;-44
2021/06/13 06:25:07;;;;;;;19.17;5.60;;;14.10;99.90;;;;;;5129851;27;20077;-45
2021/06/13 06:27:33;;;;;;;21.20;5.95;;;14.00;99.90;;;;;;5127611;27;20484;-44
2021/06/13 06:29:59;;;;;;;18.77;5.35;;;14.10;99.90;;;;;;5098779;28;20038;-44
2021/06/13 06:32:24;;;;;;;34.35;6.57;;;14.10;99.90;;;;;;5096717;28;20020;-44
2021/06/13 06:34:50;;;;;;;21.08;6.40;;;14.20;99.90;;;;;;5098235;28;20016;-44
2021/06/13 06:37:15;;;;;;;17.83;5.57;;;14.40;99.90;;;;;;5112229;27;20028;-45
2021/06/13 06:39:41;;;;;;;16.92;5.40;;;14.50;99.90;;;;;;5102236;28;20019;-44
2021/06/13 06:42:06;;;;;;;21.40;6.07;;;14.40;99.90;;;;;;5108344;28;20076;-44
2021/06/13 06:44:32;;;;;;;13.93;5.28;;;14.40;99.90;;;;;;5108619;28;20459;-44
2021/06/13 06:47:02;;;;;;;14.23;5.35;;;14.50;99.90;;;;;;5107190;28;20019;-44
2021/06/13 06:49:43;;;;;;;16.27;5.47;;;14.50;99.90;;;;;;5107789;28;20520;-45
2021/06/13 06:52:09;;;;;;;17.02;5.50;;;14.60;99.90;;;;;;5107200;28;20062;-44
2021/06/13 06:54:34;;;;;;;19.70;5.45;;;14.60;99.90;;;;;;5108684;28;20431;-45
2021/06/13 06:57:00;;;;;;;13.35;4.85;;;14.70;99.90;;;;;;5108154;28;20485;-44
2021/06/13 06:59:25;;;;;;;17.23;5.93;;;14.80;99.90;;;;;;5107903;28;20015;-44
2021/06/13 07:01:51;;;;;;;17.60;5.63;;;14.90;99.90;;;;;;5108465;28;20036;-44
2021/06/13 07:04:16;;;;;;;18.38;5.75;;;15.00;99.90;;;;;;5100510;27;20413;-44
2021/06/13 07:06:42;;;;;;;16.90;5.65;;;15.10;99.90;;;;;;5104818;27;20470;-45
2021/06/13 07:09:07;;;;;;;13.43;5.28;;;15.10;99.90;;;;;;5105404;28;20023;-45
2021/06/13 07:11:33;;;;;;;15.73;5.38;;;15.10;99.90;;;;;;5102535;28;20497;-47
2021/06/13 07:13:59;;;;;;;13.23;4.95;;;15.00;99.90;;;;;;5100646;28;20084;-44
2021/06/13 07:16:24;;;;;;;20.08;6.18;;;14.90;99.90;;;;;;5098305;28;20028;-45
2021/06/13 07:18:50;;;;;;;21.02;5.15;;;14.90;99.90;;;;;;5097178;28;20012;-44
2021/06/13 07:21:16;;;;;;;10.10;5.10;;;14.80;99.90;;;;;;5097340;28;20466;-44
2021/06/13 07:23:41;;;;;;;16.45;5.68;;;14.80;99.90;;;;;;5096275;28;20020;-44
2021/06/13 07:26:07;;;;;;;30.35;5.75;;;14.90;99.90;;;;;;5099812;28;20047;-44
2021/06/13 07:28:33;;;;;;;16.10;5.78;;;14.90;99.90;;;;;;5101812;28;20031;-44
2021/06/13 07:31:00;;;;;;;16.73;5.53;;;15.00;99.90;;;;;;5096442;28;20020;-44
2021/06/13 07:33:26;;;;;;;17.70;5.93;;;15.20;99.90;;;;;;5092228;28;20402;-44
2021/06/13 07:35:53;;;;;;;11.85;5.05;;;15.30;99.90;;;;;;5098359;28;20030;-46
2021/06/13 07:38:19;;;;;;;15.75;5.45;;;15.30;99.90;;;;;;5097997;28;20192;-44
2021/06/13 07:40:45;;;;;;;16.33;5.28;;;15.30;99.90;;;;;;5096316;28;20102;-45
2021/06/13 07:43:10;;;;;;;14.60;5.10;;;15.50;99.90;;;;;;5097442;28;20054;-44
2021/06/13 07:45:36;;;;;;;13.50;5.43;;;15.80;99.90;;;;;;5089270;28;20031;-45
2021/06/13 07:48:05;;;;;;;18.23;4.60;;;15.80;99.90;;;;;;5107538;28;20096;-45
2021/06/13 07:50:30;;;;;;;13.95;5.65;;;15.80;99.90;;;;;;5106163;28;20020;-44
2021/06/13 07:52:56;;;;;;;11.60;5.32;;;16.00;99.90;;;;;;5103945;28;20039;-44
2021/06/13 07:55:21;;;;;;;15.30;5.20;;;16.20;99.90;;;;;;5107392;28;20492;-44
2021/06/13 07:57:47;;;;;;;14.05;5.30;;;16.30;99.90;;;;;;5107460;28;20028;-44
2021/06/13 08:00:15;;;;;;;14.43;5.03;;;16.40;99.90;;;;;;5107153;28;20046;-45
2021/06/13 08:02:41;;;;;;;12.40;4.05;;;16.60;99.90;;;;;;5108071;28;20026;-44
2021/06/13 08:05:13;;;;;;;17.23;5.32;;;16.90;99.90;;;;;;5097375;28;20372;-44
2021/06/13 08:07:39;;;;;;;12.35;5.80;;;17.30;99.90;;;;;;5119728;27;20058;-44
2021/06/13 08:10:09;;;;;;;12.75;4.43;;;17.50;99.90;;;;;;5131268;27;20031;-45
2021/06/13 08:12:37;;;;;;;14.90;5.55;;;17.60;99.90;;;;;;5131545;27;20398;-44
2021/06/13 08:15:03;;;;;;;14.63;5.38;;;17.50;99.80;;;;;;5121517;27;20539;-44
2021/06/13 08:17:29;;;;;;;14.40;5.32;;;17.60;99.50;;;;;;5110390;28;20110;-45
2021/06/13 08:19:54;;;;;;;18.70;5.22;;;17.40;99.30;;;;;;5110347;28;20595;-45
2021/06/13 08:22:20;;;;;;;14.13;4.90;;;17.30;99.90;;;;;;5109903;28;20031;-47
2021/06/13 08:24:45;;;;;;;13.63;5.30;;;17.20;99.90;;;;;;5110198;28;20081;-45
2021/06/13 08:27:11;;;;;;;13.70;5.07;;;17.20;98.70;;;;;;5109329;28;20032;-45
2021/06/13 08:29:37;;;;;;;11.38;4.43;;;16.80;98.60;;;;;;5108205;28;20024;-43
2021/06/13 08:32:02;;;;;;;13.20;4.70;;;16.70;99.20;;;;;;5110508;28;20512;-43
2021/06/13 08:34:28;;;;;;;16.60;5.10;;;16.80;99.80;;;;;;5107354;28;20527;-44
2021/06/13 08:36:54;;;;;;;10.00;4.40;;;16.90;98.70;;;;;;5114134;27;20469;-44
2021/06/13 08:39:19;;;;;;;11.70;5.53;;;16.90;98.10;;;;;;5121195;27;20020;-45
2021/06/13 08:41:45;;;;;;;10.15;5.00;;;17.10;99.90;;;;;;5097863;28;20439;-45
2021/06/13 08:44:10;;;;;;;16.38;4.70;;;17.40;97.90;;;;;;5100748;28;20374;-46
2021/06/13 08:46:40;;;;;;;13.15;4.22;;;17.60;97.80;;;;;;5099500;28;20511;-44
2021/06/13 08:49:06;;;;;;;12.68;4.95;;;17.80;96.90;;;;;;5110253;28;20450;-45
2021/06/13 08:51:32;;;;;;;10.25;4.65;;;18.20;95.10;;;;;;5110634;28;20111;-44
2021/06/13 08:53:57;;;;;;;14.85;4.70;;;18.60;96.70;;;;;;5101008;28;20115;-44
2021/06/13 08:56:23;;;;;;;12.30;5.45;;;19.00;95.10;;;;;;5089791;28;20036;-44
2021/06/13 08:58:50;;;;;;;13.93;4.30;;;18.90;92.70;;;;;;5089837;28;20031;-44
2021/06/13 09:01:16;;;;;;;10.82;5.05;;;18.40;92.70;;;;;;5088806;28;20043;-44
2021/06/13 09:03:42;;;;;;;9.73;5.15;;;18.10;94.00;;;;;;5087748;28;20020;-45
2021/06/13 09:06:09;;;;;;;8.18;3.60;;;17.90;94.20;;;;;;5097081;27;20035;-44
2021/06/13 09:08:36;;;;;;;12.90;4.60;;;17.70;93.50;;;;;;5101960;27;20363;-44
2021/06/13 09:11:03;;;;;;;13.27;4.93;;;17.20;94.40;;;;;;5097705;28;20362;-45
2021/06/13 09:13:48;;;;;;;14.65;5.00;;;17.00;95.70;;;;;;5094946;28;20051;-44
2021/06/13 09:16:14;;;;;;;14.23;5.75;;;16.80;95.70;;;;;;5071466;28;20036;-44
2021/06/13 09:18:46;;;;;;;11.55;4.65;;;16.70;96.50;;;;;;5065072;28;20063;-44
2021/06/13 09:21:32;;;;;;;14.50;4.97;;;16.90;97.00;;;;;;5085477;28;20036;-44
2021/06/13 09:23:59;;;;;;;14.32;5.38;;;16.90;95.40;;;;;;5098377;28;20020;-43
2021/06/13 09:26:27;;;;;;;13.65;4.47;;;17.10;95.40;;;;;;5099287;28;20031;-44
2021/06/13 09:28:54;;;;;;;15.40;4.57;;;17.00;95.00;;;;;;5094823;28;20016;-44
2021/06/13 09:31:21;;;;;;;12.65;4.90;;;17.00;95.90;;;;;;5088900;28;20024;-46
2021/06/13 09:33:47;;;;;;;12.45;4.65;;;16.90;95.30;;;;;;5089496;28;20182;-45
2021/06/13 09:36:18;;;;;;;12.40;5.32;;;17.00;95.40;;;;;;5108351;27;20164;-44
2021/06/13 09:38:45;;;;;;;14.15;4.93;;;17.00;95.30;;;;;;5124539;27;20039;-44
2021/06/13 09:41:14;;;;;;;11.73;5.22;;;17.70;95.30;;;;;;5129189;27;20484;-46
2021/06/13 09:43:44;;;;;;;10.82;4.20;;;19.00;95.00;;;;;;5129999;27;20180;-45
2021/06/13 09:46:12;;;;;;;11.77;4.15;;;19.80;91.00;;;;;;5130101;27;20050;-47
2021/06/13 09:48:46;;;;;;;11.05;4.65;;;19.70;91.50;;;;;;5129766;27;20031;-43
2021/06/13 09:51:18;;;;;;;12.52;5.03;;;20.10;89.20;;;;;;5129983;27;20030;-44
2021/06/13 09:53:50;;;;;;;12.90;4.63;;;19.20;86.40;;;;;;5126767;27;20031;-45
2021/06/13 09:56:31;;;;;;;15.80;4.80;;;19.00;90.50;;;;;;5109152;28;20023;-45
2021/06/13 09:59:14;;;;;;;11.25;5.25;;;19.00;88.20;;;;;;5106772;28;20400;-44
2021/06/13 10:01:40;;;;;;;16.45;4.70;;;19.20;88.80;;;;;;5088470;28;20477;-44
2021/06/13 10:04:19;;;;;;;7.97;3.75;;;19.10;85.90;;;;;;5088612;28;20146;-44
2021/06/13 10:06:53;;;;;;;9.77;4.28;;;19.10;89.10;;;;;;5112134;27;20546;-44
2021/06/13 10:09:21;;;;;;;11.52;4.75;;;19.30;85.20;;;;;;5128416;27;20065;-45
2021/06/13 10:11:49;;;;;;;8.57;4.07;;;19.30;88.70;;;;;;5128848;27;20031;-45
2021/06/13 10:14:18;;;;;;;9.10;3.90;;;19.20;85.60;;;;;;5129321;27;20264;-44
2021/06/13 10:17:02;;;;;;;9.65;4.15;;;19.50;85.60;;;;;;5129254;27;20114;-45
2021/06/13 10:19:41;;;;;;;10.52;4.20;;;19.90;86.10;;;;;;5128569;27;20030;-45
2021/06/13 10:22:07;;;;;;;8.73;3.95;;;20.20;83.70;;;;;;5129313;27;20023;-45
2021/06/13 10:24:38;;;;;;;7.18;3.78;;;20.00;84.10;;;;;;5129025;27;20061;-45
2021/06/13 10:27:10;;;;;;;10.20;3.92;;;19.70;83.20;;;;;;5127756;27;20027;-45
2021/06/13 10:29:40;;;;;;;9.90;4.47;;;19.60;81.90;;;;;;5128082;27;20027;-44
2021/06/13 10:32:07;;;;;;;;;;;19.80;87.00;;;;;;5129340;27;20093;-46
2021/06/13 10:34:33;;;;;;;10.30;4.28;;;19.90;80.00;;;;;;5119987;27;19904;-45
2021/06/13 10:37:02;;;;;;;8.55;4.20;;;19.90;79.80;;;;;;5113866;27;20165;-45
2021/06/13 10:39:30;;;;;;;9.73;4.03;;;19.80;79.80;;;;;;5128058;27;20023;-46
2021/06/13 10:41:57;;;;;;;12.75;4.10;;;20.10;81.70;;;;;;5109897;27;20020;-44
2021/06/13 10:44:28;;;;;;;13.95;4.22;;;20.20;81.60;;;;;;5108295;28;20034;-45
2021/06/13 10:47:16;;;;;;;10.48;4.35;;;20.60;82.90;;;;;;5107098;28;20370;-45
2021/06/13 10:50:13;;;;;;;8.32;4.07;;;20.90;80.50;;;;;;5098858;28;20020;-44
2021/06/13 10:53:00;;;;;;;11.73;3.85;;;21.30;79.80;;;;;;5098038;28;20024;-44
2021/06/13 10:55:46;;;;;;;8.98;3.92;;;21.50;75.00;;;;;;5096640;28;20027;-44
2021/06/13 10:58:32;;;;;;;8.77;4.32;;;21.80;73.00;;;;;;5096750;28;20036;-44
2021/06/13 11:01:22;;;;;;;9.43;3.88;;;21.60;74.90;;;;;;5096949;28;20485;-43
2021/06/13 11:04:06;;;;;;;8.52;4.10;;;21.60;74.70;;;;;;5096714;28;20016;-45
2021/06/13 11:06:48;;;;;;;9.85;4.68;;;21.80;73.40;;;;;;5104738;27;20011;-45
2021/06/13 11:09:15;;;;;;;9.50;3.58;;;22.20;69.10;;;;;;5099467;27;20020;-46
2021/06/13 11:11:43;;;;;;;6.40;3.92;;;23.40;71.20;;;;;;5094956;28;20059;-45
2021/06/13 11:14:52;;;;;;;12.55;4.18;;;24.30;62.70;;;;;;5096301;28;20366;-46
2021/06/13 11:18:00;;;;;;;9.27;3.58;;;25.50;62.60;;;;;;5057913;28;20070;-45
2021/06/13 11:23:21;;;;;;;7.45;3.53;;;25.80;60.00;;;;;;5096027;28;20020;-46
2021/06/13 11:25:49;;;;;;;7.38;3.88;;;25.30;59.60;;;;;;5099037;28;20050;-45
2021/06/13 11:28:28;;;;;;;8.88;3.38;;;24.70;57.50;;;;;;5093373;28;20592;-45
2021/06/13 11:31:08;;;;;;;8.30;3.92;;;23.90;59.00;;;;;;5093764;28;20028;-46
2021/06/13 11:33:38;;;;;;;9.95;4.05;;;23.90;60.60;;;;;;5096541;28;20108;-45
2021/06/13 11:36:15;;;;;;;7.25;4.07;;;24.60;59.50;;;;;;5100784;27;20023;-44
2021/06/13 11:38:43;;;;;;;11.10;3.47;;;24.60;57.70;;;;;;5100222;28;20051;-44
2021/06/13 11:41:22;;;;;;;8.82;3.85;;;25.30;56.60;;;;;;5095185;28;20471;-44
2021/06/13 11:43:47;;;;;;;8.60;3.30;;;26.20;56.00;;;;;;5095244;28;20110;-45
2021/06/13 11:46:29;;;;;;;6.35;3.53;;;26.60;55.40;;;;;;5090900;28;20103;-47
2021/06/13 11:48:55;;;;;;;7.40;3.40;;;27.10;54.70;;;;;;5094267;28;20062;-46
2021/06/13 11:51:20;;;;;;;6.10;3.35;;;27.10;53.30;;;;;;5096426;28;20489;-45
2021/06/13 11:54:06;;;;;;;6.40;3.83;;;26.40;53.00;;;;;;5093843;28;20509;-46
2021/06/13 11:56:35;;;;;;;6.38;3.40;;;27.00;52.70;;;;;;5091274;28;20052;-44
2021/06/13 11:59:07;;;;;;;7.68;3.25;;;26.40;52.50;;;;;;5093128;28;20042;-48
2021/06/13 12:01:35;;;;;;;6.55;4.10;;;25.70;56.80;;;;;;5092818;28;20016;-44
2021/06/13 12:04:11;;;;;;;8.95;3.35;;;25.90;55.00;;;;;;5096060;28;20012;-44
2021/06/13 12:06:38;;;;;;;6.28;3.13;;;25.70;56.30;;;;;;5101331;28;20028;-45
2021/06/13 12:09:08;;;;;;;8.77;3.50;;;25.40;54.40;;;;;;5124839;28;20023;-45
2021/06/13 12:11:45;;;;;;;5.47;3.40;;;24.70;55.30;;;;;;5126560;27;20520;-44
2021/06/13 12:14:21;;;;;;;9.23;3.65;;;24.40;55.10;;;;;;5125774;27;20496;-45
2021/06/13 12:16:48;;;;;;;10.32;4.22;;;24.60;57.30;;;;;;5127084;27;20027;-45
2021/06/13 12:19:14;;;;;;;9.23;3.95;;;24.60;54.50;;;;;;5125533;28;20043;-45
2021/06/13 12:21:40;;;;;;;5.70;3.20;;;24.50;55.00;;;;;;5127309;27;20023;-44
2021/06/13 12:24:33;;;;;;;9.27;3.72;;;24.40;58.20;;;;;;5127228;27;20034;-44
2021/06/13 12:27:22;;;;;;;9.70;3.45;;;23.50;56.70;;;;;;5127403;27;20058;-45
2021/06/13 12:29:48;;;;;;;11.18;3.47;;;23.30;58.00;;;;;;5127021;27;20019;-45
2021/06/13 12:32:15;;;;;;;13.05;4.18;;;23.50;58.90;;;;;;5126257;27;20025;-45
2021/06/13 12:34:42;;;;;;;9.40;4.72;;;23.90;58.20;;;;;;5117201;27;20020;-44
2021/06/13 12:37:16;;;;;;;10.65;4.35;;;24.30;61.00;;;;;;5114625;27;20027;-44
2021/06/13 12:39:52;;;;;;;12.43;3.72;;;24.60;58.00;;;;;;5125178;28;20020;-43
2021/06/13 12:42:18;;;;;;;10.60;4.20;;;24.30;57.70;;;;;;5126608;27;20472;-44
2021/06/13 12:44:43;;;;;;;8.85;3.80;;;24.00;56.60;;;;;;5127168;28;20031;-46
2021/06/13 12:47:09;;;;;;;7.22;3.88;;;23.80;55.60;;;;;;5104926;28;20036;-45
2021/06/13 12:49:43;;;;;;;8.05;3.72;;;23.30;57.50;;;;;;5093597;28;20042;-47
2021/06/13 12:52:17;;;;;;;9.80;4.43;;;23.40;59.30;;;;;;5104959;28;20020;-46